sensor_id;sensor_type;location;lat;lon;timestamp;pressure;altitude;pressure_sealevel;temperature;humidity
74524;BME280;63074;44.696;10.358;2023-09-30T00:01:22;100556.75;;;27.29;68.80
74524;BME280;63074;44.696;10.358;2023-09-30T00:03:49;100558.44;;;26.54;69.92
74524;BME280;63074;44.696;10.358;2023-09-30T00:06:15;100568.69;;;27.42;67.68
74524;BME280;63074;44.696;10.358;2023-09-30T00:08:41;100570.59;;;26.53;69.89
74524;BME280;63074;44.696;10.358;2023-09-30T00:11:09;100571.09;;;26.29;71.46
74524;BME280;63074;44.696;10.358;2023-09-30T00:13:35;100562.81;;;26.46;72.19
74524;BME280;63074;44.696;10.358;2023-09-30T00:16:02;100558.75;;;26.52;71.32
74524;BME280;63074;44.696;10.358;2023-09-30T00:18:28;100553.16;;;26.70;70.60
74524;BME280;63074;44.696;10.358;2023-09-30T00:20:54;100552.91;;;26.54;70.90
74524;BME280;63074;44.696;10.358;2023-09-30T00:23:20;100551.72;;;27.02;69.33
74524;BME280;63074;44.696;10.358;2023-09-30T00:25:47;100558.66;;;26.70;69.89
74524;BME280;63074;44.696;10.358;2023-09-30T00:28:16;100559.22;;;26.54;70.41
74524;BME280;63074;44.696;10.358;2023-09-30T00:30:42;100563.44;;;26.90;67.73
74524;BME280;63074;44.696;10.358;2023-09-30T00:33:08;100556.22;;;27.36;66.13
74524;BME280;63074;44.696;10.358;2023-09-30T00:35:34;100558.50;;;26.75;67.80
74524;BME280;63074;44.696;10.358;2023-09-30T00:38:01;100558.66;;;26.14;72.04
74524;BME280;63074;44.696;10.358;2023-09-30T00:40:27;100554.06;;;26.44;71.31
74524;BME280;63074;44.696;10.358;2023-09-30T00:42:53;100553.00;;;26.66;69.68
74524;BME280;63074;44.696;10.358;2023-09-30T00:45:19;100547.53;;;26.87;68.83
74524;BME280;63074;44.696;10.358;2023-09-30T00:47:46;100551.84;;;26.76;69.22
74524;BME280;63074;44.696;10.358;2023-09-30T00:50:12;100554.47;;;27.02;68.14
74524;BME280;63074;44.696;10.358;2023-09-30T00:52:39;100548.00;;;26.98;69.38
74524;BME280;63074;44.696;10.358;2023-09-30T00:55:06;100551.25;;;25.89;73.55
74524;BME280;63074;44.696;10.358;2023-09-30T00:57:34;100544.59;;;25.81;74.51
74524;BME280;63074;44.696;10.358;2023-09-30T01:00:01;100550.44;;;25.71;74.67
74524;BME280;63074;44.696;10.358;2023-09-30T01:02:27;100557.59;;;25.64;76.06
74524;BME280;63074;44.696;10.358;2023-09-30T01:04:55;100560.25;;;26.24;72.46
74524;BME280;63074;44.696;10.358;2023-09-30T01:07:21;100556.53;;;25.25;77.80
74524;BME280;63074;44.696;10.358;2023-09-30T01:09:48;100551.38;;;25.49;77.58
74524;BME280;63074;44.696;10.358;2023-09-30T01:12:14;100554.94;;;25.58;77.60
74524;BME280;63074;44.696;10.358;2023-09-30T01:14:41;100549.94;;;25.52;76.20
74524;BME280;63074;44.696;10.358;2023-09-30T01:17:08;100550.91;;;25.73;74.66
74524;BME280;63074;44.696;10.358;2023-09-30T01:19:35;100548.47;;;26.06;73.54
74524;BME280;63074;44.696;10.358;2023-09-30T01:22:01;100543.16;;;25.84;74.47
74524;BME280;63074;44.696;10.358;2023-09-30T01:24:41;100539.22;;;26.19;76.08
74524;BME280;63074;44.696;10.358;2023-09-30T01:27:08;100542.31;;;26.65;69.70
74524;BME280;63074;44.696;10.358;2023-09-30T01:29:34;100541.91;;;26.45;71.10
74524;BME280;63074;44.696;10.358;2023-09-30T01:32:01;100530.66;;;26.59;70.43
74524;BME280;63074;44.696;10.358;2023-09-30T01:34:27;100531.22;;;26.82;69.45
74524;BME280;63074;44.696;10.358;2023-09-30T01:36:53;100527.94;;;25.78;76.40
74524;BME280;63074;44.696;10.358;2023-09-30T01:39:19;100542.47;;;26.13;73.41
74524;BME280;63074;44.696;10.358;2023-09-30T01:41:46;100542.94;;;26.23;72.03
74524;BME280;63074;44.696;10.358;2023-09-30T01:44:12;100537.94;;;26.64;70.06
74524;BME280;63074;44.696;10.358;2023-09-30T01:46:38;100542.84;;;27.17;67.11
74524;BME280;63074;44.696;10.358;2023-09-30T01:49:04;100541.28;;;27.37;64.91
74524;BME280;63074;44.696;10.358;2023-09-30T01:51:30;100542.69;;;27.84;62.96
74524;BME280;63074;44.696;10.358;2023-09-30T01:53:57;100546.41;;;27.68;62.80
74524;BME280;63074;44.696;10.358;2023-09-30T01:56:23;100547.63;;;26.32;67.58
74524;BME280;63074;44.696;10.358;2023-09-30T01:58:49;100539.22;;;26.66;68.60
74524;BME280;63074;44.696;10.358;2023-09-30T02:01:15;100534.03;;;26.65;69.49
74524;BME280;63074;44.696;10.358;2023-09-30T02:03:41;100541.25;;;26.48;70.06
74524;BME280;63074;44.696;10.358;2023-09-30T02:06:08;100532.63;;;25.86;71.14
74524;BME280;63074;44.696;10.358;2023-09-30T02:08:34;100536.19;;;25.78;71.45
74524;BME280;63074;44.696;10.358;2023-09-30T02:11:02;100542.84;;;25.85;72.53
74524;BME280;63074;44.696;10.358;2023-09-30T02:13:33;100543.06;;;26.36;69.95
74524;BME280;63074;44.696;10.358;2023-09-30T02:15:59;100542.78;;;26.67;68.89
74524;BME280;63074;44.696;10.358;2023-09-30T02:18:25;100544.22;;;26.17;70.50
74524;BME280;63074;44.696;10.358;2023-09-30T02:20:52;100542.22;;;26.52;69.40
74524;BME280;63074;44.696;10.358;2023-09-30T02:23:19;100535.81;;;26.14;70.33
74524;BME280;63074;44.696;10.358;2023-09-30T02:25:46;100540.34;;;26.18;70.19
74524;BME280;63074;44.696;10.358;2023-09-30T02:28:12;100544.88;;;26.14;71.20
74524;BME280;63074;44.696;10.358;2023-09-30T02:30:38;100545.66;;;26.41;69.98
74524;BME280;63074;44.696;10.358;2023-09-30T02:33:05;100542.50;;;25.87;72.20
74524;BME280;63074;44.696;10.358;2023-09-30T02:35:33;100539.38;;;26.06;72.17
74524;BME280;63074;44.696;10.358;2023-09-30T02:37:59;100543.03;;;26.53;70.17
74524;BME280;63074;44.696;10.358;2023-09-30T02:40:26;100542.44;;;26.77;68.10
74524;BME280;63074;44.696;10.358;2023-09-30T02:42:52;100541.72;;;27.68;63.81
74524;BME280;63074;44.696;10.358;2023-09-30T02:45:18;100543.25;;;27.07;64.42
74524;BME280;63074;44.696;10.358;2023-09-30T02:47:44;100534.81;;;26.74;65.37
74524;BME280;63074;44.696;10.358;2023-09-30T02:50:11;100536.47;;;27.04;64.94
74524;BME280;63074;44.696;10.358;2023-09-30T02:52:37;100530.34;;;26.90;65.38
74524;BME280;63074;44.696;10.358;2023-09-30T02:55:07;100525.91;;;26.30;68.04
74524;BME280;63074;44.696;10.358;2023-09-30T02:57:33;100527.41;;;26.10;69.06
74524;BME280;63074;44.696;10.358;2023-09-30T03:00:02;100524.78;;;26.14;70.82
74524;BME280;63074;44.696;10.358;2023-09-30T03:02:38;100529.03;;;25.42;74.13
74524;BME280;63074;44.696;10.358;2023-09-30T03:05:04;100521.97;;;25.67;73.51
74524;BME280;63074;44.696;10.358;2023-09-30T03:07:31;100525.84;;;26.47;70.06
74524;BME280;63074;44.696;10.358;2023-09-30T03:09:59;100514.78;;;26.01;70.32
74524;BME280;63074;44.696;10.358;2023-09-30T03:12:30;100513.69;;;25.58;72.10
74524;BME280;63074;44.696;10.358;2023-09-30T03:14:57;100513.75;;;26.31;68.82
74524;BME280;63074;44.696;10.358;2023-09-30T03:17:24;100513.56;;;26.36;68.10
74524;BME280;63074;44.696;10.358;2023-09-30T03:19:51;100515.19;;;26.29;68.94
74524;BME280;63074;44.696;10.358;2023-09-30T03:22:18;100508.38;;;26.35;69.26
74524;BME280;63074;44.696;10.358;2023-09-30T03:24:45;100505.97;;;26.33;68.12
74524;BME280;63074;44.696;10.358;2023-09-30T03:27:11;100504.34;;;26.70;66.20
74524;BME280;63074;44.696;10.358;2023-09-30T03:29:37;100501.69;;;25.80;70.12
74524;BME280;63074;44.696;10.358;2023-09-30T03:32:06;100503.31;;;25.30;76.21
74524;BME280;63074;44.696;10.358;2023-09-30T03:34:34;100508.00;;;25.46;74.50
74524;BME280;63074;44.696;10.358;2023-09-30T03:37:03;100497.78;;;25.04;77.27
74524;BME280;63074;44.696;10.358;2023-09-30T03:39:32;100503.81;;;25.57;75.62
74524;BME280;63074;44.696;10.358;2023-09-30T03:41:59;100510.09;;;25.23;77.29
74524;BME280;63074;44.696;10.358;2023-09-30T03:44:26;100505.03;;;26.20;71.63
74524;BME280;63074;44.696;10.358;2023-09-30T03:46:52;100503.41;;;26.11;70.15
74524;BME280;63074;44.696;10.358;2023-09-30T03:49:19;100495.91;;;26.37;69.08
74524;BME280;63074;44.696;10.358;2023-09-30T03:51:46;100505.44;;;26.78;66.73
74524;BME280;63074;44.696;10.358;2023-09-30T03:54:12;100509.88;;;26.23;67.25
74524;BME280;63074;44.696;10.358;2023-09-30T03:56:38;100512.72;;;26.82;66.27
74524;BME280;63074;44.696;10.358;2023-09-30T03:59:05;100517.63;;;26.30;66.99
74524;BME280;63074;44.696;10.358;2023-09-30T04:01:31;100505.28;;;25.38;72.59
74524;BME280;63074;44.696;10.358;2023-09-30T04:03:57;100517.56;;;25.75;71.75
74524;BME280;63074;44.696;10.358;2023-09-30T04:06:23;100520.47;;;25.35;73.84
74524;BME280;63074;44.696;10.358;2023-09-30T04:08:50;100524.03;;;25.44;73.63
74524;BME280;63074;44.696;10.358;2023-09-30T04:11:17;100526.06;;;26.25;69.57
74524;BME280;63074;44.696;10.358;2023-09-30T04:13:45;100528.25;;;25.85;71.53
74524;BME280;63074;44.696;10.358;2023-09-30T04:16:11;100530.19;;;25.93;70.08
74524;BME280;63074;44.696;10.358;2023-09-30T04:18:37;100524.84;;;25.62;71.81
74524;BME280;63074;44.696;10.358;2023-09-30T04:21:06;100522.09;;;25.53;72.15
74524;BME280;63074;44.696;10.358;2023-09-30T04:23:33;100516.09;;;25.43;72.40
74524;BME280;63074;44.696;10.358;2023-09-30T04:26:02;100517.56;;;25.83;70.90
74524;BME280;63074;44.696;10.358;2023-09-30T04:28:29;100514.00;;;25.83;71.43
74524;BME280;63074;44.696;10.358;2023-09-30T04:30:56;100510.94;;;25.58;71.53
74524;BME280;63074;44.696;10.358;2023-09-30T04:33:24;100518.88;;;25.86;70.44
74524;BME280;63074;44.696;10.358;2023-09-30T04:35:51;100517.72;;;25.96;69.79
74524;BME280;63074;44.696;10.358;2023-09-30T04:38:17;100518.47;;;26.13;68.71
74524;BME280;63074;44.696;10.358;2023-09-30T04:40:43;100524.22;;;26.84;65.26
74524;BME280;63074;44.696;10.358;2023-09-30T04:43:10;100521.91;;;26.95;64.56
74524;BME280;63074;44.696;10.358;2023-09-30T04:45:37;100522.13;;;26.81;63.57
74524;BME280;63074;44.696;10.358;2023-09-30T04:48:03;100530.94;;;27.04;62.91
74524;BME280;63074;44.696;10.358;2023-09-30T04:50:30;100525.03;;;26.85;63.39
74524;BME280;63074;44.696;10.358;2023-09-30T04:52:57;100520.41;;;27.06;62.90
74524;BME280;63074;44.696;10.358;2023-09-30T04:55:26;100522.75;;;27.16;62.84
74524;BME280;63074;44.696;10.358;2023-09-30T04:57:52;100526.38;;;27.50;60.64
74524;BME280;63074;44.696;10.358;2023-09-30T05:00:19;100527.72;;;27.02;63.57
74524;BME280;63074;44.696;10.358;2023-09-30T05:02:51;100532.22;;;26.31;66.98
74524;BME280;63074;44.696;10.358;2023-09-30T05:05:18;100526.34;;;26.49;65.26
74524;BME280;63074;44.696;10.358;2023-09-30T05:07:45;100522.06;;;26.90;64.36
74524;BME280;63074;44.696;10.358;2023-09-30T05:10:13;100525.91;;;26.21;65.42
74524;BME280;63074;44.696;10.358;2023-09-30T05:12:43;100521.88;;;26.10;68.06
74524;BME280;63074;44.696;10.358;2023-09-30T05:15:12;100523.00;;;26.65;64.76
74524;BME280;63074;44.696;10.358;2023-09-30T05:17:39;100529.97;;;26.15;66.54
74524;BME280;63074;44.696;10.358;2023-09-30T05:20:06;100537.13;;;25.99;67.01
74524;BME280;63074;44.696;10.358;2023-09-30T05:22:33;100534.72;;;25.72;69.26
74524;BME280;63074;44.696;10.358;2023-09-30T05:25:00;100540.06;;;25.34;71.18
74524;BME280;63074;44.696;10.358;2023-09-30T05:27:26;100547.19;;;25.52;70.10
74524;BME280;63074;44.696;10.358;2023-09-30T05:29:53;100547.06;;;25.66;69.02
74524;BME280;63074;44.696;10.358;2023-09-30T05:32:21;100541.88;;;25.64;69.75
74524;BME280;63074;44.696;10.358;2023-09-30T05:34:48;100543.09;;;25.23;72.09
74524;BME280;63074;44.696;10.358;2023-09-30T05:37:14;100551.16;;;25.03;72.59
74524;BME280;63074;44.696;10.358;2023-09-30T05:39:40;100546.53;;;25.38;70.93
74524;BME280;63074;44.696;10.358;2023-09-30T05:42:06;100551.19;;;25.11;73.54
74524;BME280;63074;44.696;10.358;2023-09-30T05:44:33;100553.53;;;25.87;69.06
74524;BME280;63074;44.696;10.358;2023-09-30T05:46:59;100556.19;;;25.18;71.76
74524;BME280;63074;44.696;10.358;2023-09-30T05:49:26;100558.84;;;25.75;68.46
74524;BME280;63074;44.696;10.358;2023-09-30T05:51:52;100566.03;;;27.24;63.02
74524;BME280;63074;44.696;10.358;2023-09-30T05:54:18;100572.03;;;27.47;61.81
74524;BME280;63074;44.696;10.358;2023-09-30T05:56:45;100573.19;;;27.17;62.25
74524;BME280;63074;44.696;10.358;2023-09-30T05:59:11;100576.44;;;27.69;60.75
74524;BME280;63074;44.696;10.358;2023-09-30T06:01:39;100584.19;;;27.97;58.48
74524;BME280;63074;44.696;10.358;2023-09-30T06:04:05;100583.63;;;27.82;59.52
74524;BME280;63074;44.696;10.358;2023-09-30T06:06:32;100588.41;;;27.94;58.72
74524;BME280;63074;44.696;10.358;2023-09-30T06:08:59;100583.34;;;27.54;59.74
74524;BME280;63074;44.696;10.358;2023-09-30T06:11:25;100578.09;;;27.41;60.79
74524;BME280;63074;44.696;10.358;2023-09-30T06:13:57;100584.75;;;27.69;59.54
74524;BME280;63074;44.696;10.358;2023-09-30T06:16:29;100575.41;;;27.32;60.26
74524;BME280;63074;44.696;10.358;2023-09-30T06:18:57;100584.34;;;28.45;56.65
74524;BME280;63074;44.696;10.358;2023-09-30T06:21:25;100589.94;;;28.04;58.63
74524;BME280;63074;44.696;10.358;2023-09-30T06:23:55;100590.38;;;27.94;58.86
74524;BME280;63074;44.696;10.358;2023-09-30T06:26:21;100581.84;;;27.66;60.02
74524;BME280;63074;44.696;10.358;2023-09-30T06:28:51;100592.03;;;28.07;59.00
74524;BME280;63074;44.696;10.358;2023-09-30T06:31:19;100590.47;;;27.64;61.56
74524;BME280;63074;44.696;10.358;2023-09-30T06:33:45;100596.47;;;27.37;62.17
74524;BME280;63074;44.696;10.358;2023-09-30T06:36:15;100604.13;;;27.31;63.13
74524;BME280;63074;44.696;10.358;2023-09-30T06:38:41;100604.28;;;27.55;61.73
74524;BME280;63074;44.696;10.358;2023-09-30T06:41:08;100604.22;;;28.06;61.39
74524;BME280;63074;44.696;10.358;2023-09-30T06:43:35;100598.41;;;28.65;59.45
74524;BME280;63074;44.696;10.358;2023-09-30T06:46:07;100598.53;;;27.90;61.00
74524;BME280;63074;44.696;10.358;2023-09-30T06:48:38;100602.31;;;28.18;60.95
74524;BME280;63074;44.696;10.358;2023-09-30T06:51:06;100602.31;;;28.18;61.43
74524;BME280;63074;44.696;10.358;2023-09-30T06:53:33;100603.28;;;28.22;63.52
74524;BME280;63074;44.696;10.358;2023-09-30T06:55:59;100595.66;;;28.19;63.82
74524;BME280;63074;44.696;10.358;2023-09-30T06:58:25;100587.66;;;28.27;64.06
74524;BME280;63074;44.696;10.358;2023-09-30T07:00:52;100598.84;;;29.12;61.31
74524;BME280;63074;44.696;10.358;2023-09-30T07:03:21;100591.88;;;29.54;58.81
74524;BME280;63074;44.696;10.358;2023-09-30T07:05:47;100585.56;;;29.17;61.08
74524;BME280;63074;44.696;10.358;2023-09-30T07:08:18;100588.69;;;28.34;63.98
74524;BME280;63074;44.696;10.358;2023-09-30T07:10:45;100579.63;;;27.30;66.96
74524;BME280;63074;44.696;10.358;2023-09-30T07:13:16;100580.84;;;28.03;65.81
74524;BME280;63074;44.696;10.358;2023-09-30T07:15:42;100584.09;;;28.83;62.13
74524;BME280;63074;44.696;10.358;2023-09-30T07:18:08;100593.44;;;28.46;61.78
74524;BME280;63074;44.696;10.358;2023-09-30T07:20:35;100588.50;;;28.51;61.22
74524;BME280;63074;44.696;10.358;2023-09-30T07:23:01;100597.31;;;29.02;59.89
74524;BME280;63074;44.696;10.358;2023-09-30T07:25:29;100592.47;;;30.16;56.61
74524;BME280;63074;44.696;10.358;2023-09-30T07:27:58;100594.75;;;30.42;55.50
74524;BME280;63074;44.696;10.358;2023-09-30T07:30:25;100599.59;;;30.45;56.37
74524;BME280;63074;44.696;10.358;2023-09-30T07:32:52;100614.31;;;30.33;56.83
74524;BME280;63074;44.696;10.358;2023-09-30T07:35:18;100613.25;;;30.38;56.34
74524;BME280;63074;44.696;10.358;2023-09-30T07:37:45;100618.09;;;30.41;55.44
74524;BME280;63074;44.696;10.358;2023-09-30T07:40:13;100621.56;;;30.22;57.89
74524;BME280;63074;44.696;10.358;2023-09-30T07:42:40;100625.09;;;29.95;59.32
74524;BME280;63074;44.696;10.358;2023-09-30T07:45:06;100612.91;;;30.39;57.29
74524;BME280;63074;44.696;10.358;2023-09-30T07:47:32;100616.56;;;30.71;57.00
74524;BME280;63074;44.696;10.358;2023-09-30T07:50:00;100623.81;;;30.04;59.47
74524;BME280;63074;44.696;10.358;2023-09-30T07:52:32;100627.28;;;29.49;59.92
74524;BME280;63074;44.696;10.358;2023-09-30T07:54:58;100624.44;;;30.26;55.40
74524;BME280;63074;44.696;10.358;2023-09-30T07:57:24;100639.19;;;30.58;53.62
74524;BME280;63074;44.696;10.358;2023-09-30T07:59:51;100639.59;;;30.16;54.84
74524;BME280;63074;44.696;10.358;2023-09-30T08:02:18;100643.03;;;30.25;54.15
74524;BME280;63074;44.696;10.358;2023-09-30T08:04:44;100651.22;;;30.49;54.38
74524;BME280;63074;44.696;10.358;2023-09-30T08:07:10;100647.53;;;30.30;55.27
74524;BME280;63074;44.696;10.358;2023-09-30T08:09:36;100645.56;;;31.05;52.07
74524;BME280;63074;44.696;10.358;2023-09-30T08:12:03;100636.13;;;30.19;53.38
74524;BME280;63074;44.696;10.358;2023-09-30T08:14:30;100649.88;;;28.45;58.10
74524;BME280;63074;44.696;10.358;2023-09-30T08:16:56;100654.63;;;29.26;58.08
74524;BME280;63074;44.696;10.358;2023-09-30T08:19:23;100649.13;;;30.31;54.97
74524;BME280;63074;44.696;10.358;2023-09-30T08:21:49;100651.34;;;29.85;57.92
74524;BME280;63074;44.696;10.358;2023-09-30T08:24:15;100652.19;;;29.73;61.07
74524;BME280;63074;44.696;10.358;2023-09-30T08:26:41;100651.09;;;28.35;66.78
74524;BME280;63074;44.696;10.358;2023-09-30T08:29:08;100653.13;;;29.04;63.01
74524;BME280;63074;44.696;10.358;2023-09-30T08:31:34;100649.28;;;28.39;59.82
74524;BME280;63074;44.696;10.358;2023-09-30T08:34:00;100637.84;;;29.83;58.55
74524;BME280;63074;44.696;10.358;2023-09-30T08:36:29;100633.97;;;29.60;57.74
74524;BME280;63074;44.696;10.358;2023-09-30T08:38:56;100641.91;;;28.88;60.95
74524;BME280;63074;44.696;10.358;2023-09-30T08:41:35;100644.34;;;28.90;62.88
74524;BME280;63074;44.696;10.358;2023-09-30T08:44:02;100655.66;;;28.85;62.84
74524;BME280;63074;44.696;10.358;2023-09-30T08:46:33;100655.31;;;28.53;65.51
74524;BME280;63074;44.696;10.358;2023-09-30T08:49:02;100660.13;;;30.27;58.78
74524;BME280;63074;44.696;10.358;2023-09-30T08:51:30;100678.63;;;29.10;61.02
74524;BME280;63074;44.696;10.358;2023-09-30T08:53:57;100675.06;;;30.38;56.47
74524;BME280;63074;44.696;10.358;2023-09-30T08:56:29;100665.78;;;30.59;55.39
74524;BME280;63074;44.696;10.358;2023-09-30T08:58:57;100672.75;;;29.11;59.90
74524;BME280;63074;44.696;10.358;2023-09-30T09:01:28;100674.75;;;31.31;54.03
74524;BME280;63074;44.696;10.358;2023-09-30T09:03:56;100669.38;;;31.38;53.08
74524;BME280;63074;44.696;10.358;2023-09-30T09:06:23;100668.09;;;31.67;50.61
74524;BME280;63074;44.696;10.358;2023-09-30T09:08:50;100664.44;;;31.47;52.39
74524;BME280;63074;44.696;10.358;2023-09-30T09:11:17;100662.63;;;32.09;51.80
74524;BME280;63074;44.696;10.358;2023-09-30T09:13:49;100666.03;;;29.24;58.57
74524;BME280;63074;44.696;10.358;2023-09-30T09:16:22;100660.66;;;29.93;58.60
74524;BME280;63074;44.696;10.358;2023-09-30T09:18:49;100667.75;;;32.07;52.46
74524;BME280;63074;44.696;10.358;2023-09-30T09:21:18;100667.00;;;30.05;58.91
74524;BME280;63074;44.696;10.358;2023-09-30T09:23:46;100663.22;;;31.13;53.50
74524;BME280;63074;44.696;10.358;2023-09-30T09:26:33;100679.53;;;31.65;54.00
74524;BME280;63074;44.696;10.358;2023-09-30T09:29:03;100670.28;;;31.26;54.52
74524;BME280;63074;44.696;10.358;2023-09-30T09:31:32;100661.19;;;31.96;52.88
74524;BME280;63074;44.696;10.358;2023-09-30T09:34:01;100669.19;;;32.78;49.60
74524;BME280;63074;44.696;10.358;2023-09-30T09:36:45;100669.78;;;32.26;51.17
74524;BME280;63074;44.696;10.358;2023-09-30T09:39:14;100666.94;;;32.06;50.99
74524;BME280;63074;44.696;10.358;2023-09-30T09:41:54;100664.84;;;31.65;53.47
74524;BME280;63074;44.696;10.358;2023-09-30T09:44:24;100677.03;;;32.95;48.94
74524;BME280;63074;44.696;10.358;2023-09-30T09:46:53;100671.22;;;32.81;48.17
74524;BME280;63074;44.696;10.358;2023-09-30T09:49:20;100670.88;;;32.82;49.32
74524;BME280;63074;44.696;10.358;2023-09-30T09:51:48;100670.41;;;32.38;46.43
74524;BME280;63074;44.696;10.358;2023-09-30T09:54:17;100668.03;;;31.82;50.06
74524;BME280;63074;44.696;10.358;2023-09-30T09:56:46;100667.19;;;33.01;47.57
74524;BME280;63074;44.696;10.358;2023-09-30T09:59:15;100673.63;;;33.28;46.96
74524;BME280;63074;44.696;10.358;2023-09-30T10:01:42;100674.00;;;33.04;47.00
74524;BME280;63074;44.696;10.358;2023-09-30T10:04:10;100667.03;;;33.13;45.95
74524;BME280;63074;44.696;10.358;2023-09-30T10:06:37;100661.72;;;32.82;47.68
74524;BME280;63074;44.696;10.358;2023-09-30T10:09:09;100662.75;;;33.72;44.17
74524;BME280;63074;44.696;10.358;2023-09-30T10:11:37;100653.75;;;32.61;49.66
74524;BME280;63074;44.696;10.358;2023-09-30T10:14:04;100640.69;;;34.20;44.20
74524;BME280;63074;44.696;10.358;2023-09-30T10:19:11;100652.28;;;33.92;44.08
74524;BME280;63074;44.696;10.358;2023-09-30T10:21:38;100647.78;;;33.84;44.46
74524;BME280;63074;44.696;10.358;2023-09-30T10:30:19;100651.41;;;33.32;44.72
74524;BME280;63074;44.696;10.358;2023-09-30T10:40:51;100662.69;;;34.66;43.72
74524;BME280;63074;44.696;10.358;2023-09-30T10:43:39;100670.44;;;35.27;41.73
74524;BME280;63074;44.696;10.358;2023-09-30T10:48:52;100682.41;;;32.42;46.37
74524;BME280;63074;44.696;10.358;2023-09-30T10:51:22;100681.41;;;33.68;44.84
74524;BME280;63074;44.696;10.358;2023-09-30T10:53:53;100678.28;;;35.07;42.02
74524;BME280;63074;44.696;10.358;2023-09-30T10:56:23;100670.31;;;33.72;43.20
74524;BME280;63074;44.696;10.358;2023-09-30T10:58:53;100666.84;;;33.03;45.54
74524;BME280;63074;44.696;10.358;2023-09-30T11:01:22;100666.94;;;33.33;45.45
74524;BME280;63074;44.696;10.358;2023-09-30T11:03:50;100658.41;;;34.35;44.15
74524;BME280;63074;44.696;10.358;2023-09-30T11:06:19;100655.78;;;34.90;43.16
74524;BME280;63074;44.696;10.358;2023-09-30T11:08:57;100650.47;;;35.25;42.13
74524;BME280;63074;44.696;10.358;2023-09-30T11:11:41;100649.66;;;35.25;41.20
74524;BME280;63074;44.696;10.358;2023-09-30T11:14:28;100637.69;;;34.76;41.84
74524;BME280;63074;44.696;10.358;2023-09-30T11:16:56;100639.31;;;35.87;40.39
74524;BME280;63074;44.696;10.358;2023-09-30T11:19:23;100627.72;;;35.27;42.80
74524;BME280;63074;44.696;10.358;2023-09-30T11:21:54;100630.81;;;35.69;42.20
74524;BME280;63074;44.696;10.358;2023-09-30T11:24:21;100624.75;;;36.50;40.01
74524;BME280;63074;44.696;10.358;2023-09-30T11:26:48;100622.06;;;35.74;40.09
74524;BME280;63074;44.696;10.358;2023-09-30T11:29:18;100613.66;;;35.09;40.93
74524;BME280;63074;44.696;10.358;2023-09-30T11:31:47;100605.13;;;34.88;40.52
74524;BME280;63074;44.696;10.358;2023-09-30T11:34:17;100610.19;;;35.95;39.65
74524;BME280;63074;44.696;10.358;2023-09-30T11:36:52;100609.66;;;34.66;41.57
74524;BME280;63074;44.696;10.358;2023-09-30T11:39:26;100607.56;;;35.54;38.87
74524;BME280;63074;44.696;10.358;2023-09-30T11:41:53;100605.59;;;37.20;40.08
74524;BME280;63074;44.696;10.358;2023-09-30T11:44:21;100604.66;;;37.76;39.83
74524;BME280;63074;44.696;10.358;2023-09-30T11:46:49;100597.03;;;37.77;38.82
74524;BME280;63074;44.696;10.358;2023-09-30T11:49:28;100603.97;;;37.15;39.00
74524;BME280;63074;44.696;10.358;2023-09-30T11:52:00;100584.78;;;37.25;38.11
74524;BME280;63074;44.696;10.358;2023-09-30T11:54:33;100560.31;;;37.32;38.09
74524;BME280;63074;44.696;10.358;2023-09-30T11:57:01;100551.06;;;37.49;37.40
74524;BME280;63074;44.696;10.358;2023-09-30T11:59:28;100576.13;;;39.44;35.08
74524;BME280;63074;44.696;10.358;2023-09-30T12:01:55;100571.53;;;38.78;36.36
74524;BME280;63074;44.696;10.358;2023-09-30T12:04:21;100535.38;;;39.59;35.38
74524;BME280;63074;44.696;10.358;2023-09-30T12:06:48;100519.78;;;39.55;34.61
74524;BME280;63074;44.696;10.358;2023-09-30T12:09:15;100558.88;;;39.04;34.27
74524;BME280;63074;44.696;10.358;2023-09-30T12:11:43;100544.06;;;39.38;33.75
74524;BME280;63074;44.696;10.358;2023-09-30T12:14:13;100571.22;;;40.66;32.91
74524;BME280;63074;44.696;10.358;2023-09-30T12:16:39;100533.66;;;41.20;32.35
74524;BME280;63074;44.696;10.358;2023-09-30T12:19:07;100523.03;;;40.84;31.70
74524;BME280;63074;44.696;10.358;2023-09-30T12:21:33;100537.84;;;41.71;31.19
74524;BME280;63074;44.696;10.358;2023-09-30T12:24:01;100549.63;;;41.03;30.72
74524;BME280;63074;44.696;10.358;2023-09-30T12:26:29;100567.06;;;41.21;31.29
74524;BME280;63074;44.696;10.358;2023-09-30T12:28:56;100524.44;;;40.49;30.60
74524;BME280;63074;44.696;10.358;2023-09-30T12:31:23;100522.44;;;41.92;30.46
74524;BME280;63074;44.696;10.358;2023-09-30T12:33:49;100559.19;;;41.72;28.93
74524;BME280;63074;44.696;10.358;2023-09-30T12:36:18;100567.78;;;41.85;29.41
74524;BME280;63074;44.696;10.358;2023-09-30T12:38:44;100523.88;;;42.81;28.84
74524;BME280;63074;44.696;10.358;2023-09-30T12:41:11;100555.47;;;43.92;28.45
74524;BME280;63074;44.696;10.358;2023-09-30T12:43:38;100562.97;;;42.70;28.57
74524;BME280;63074;44.696;10.358;2023-09-30T12:46:04;100555.28;;;43.16;28.80
74524;BME280;63074;44.696;10.358;2023-09-30T12:48:31;100556.78;;;43.49;29.42
74524;BME280;63074;44.696;10.358;2023-09-30T12:50:57;100566.44;;;42.25;30.07
74524;BME280;63074;44.696;10.358;2023-09-30T12:53:23;100546.47;;;41.24;30.52
74524;BME280;63074;44.696;10.358;2023-09-30T12:55:50;100562.06;;;42.89;28.81
74524;BME280;63074;44.696;10.358;2023-09-30T12:58:16;100568.47;;;43.06;29.82
74524;BME280;63074;44.696;10.358;2023-09-30T13:00:43;100562.00;;;43.05;29.84
74524;BME280;63074;44.696;10.358;2023-09-30T13:03:10;100568.34;;;42.48;29.43